Time;durP1;ratioP1;P1;durP2;ratioP2;P2;SDS_P1;SDS_P2;PMS_P1;PMS_P2;Temp;Humidity;BMP_temperature;BMP_pressure;BME280_temperature;BME280_humidity;BME280_pressure;Samples;Min_cycle;Max_cycle;Signal;HPM_P1;HPM_P2
2022/12/05 00:01:21;;;;;;;18.27;11.43;;;4.00;99.90;;;;;;4975913;28;20458;-90
2022/12/05 00:03:48;;;;;;;24.57;12.07;;;4.10;99.90;;;;;;4974650;28;20422;-90
2022/12/05 00:06:15;;;;;;;23.33;13.17;;;4.10;99.90;;;;;;4975103;28;20418;-90
2022/12/05 00:08:40;;;;;;;22.77;11.60;;;4.10;99.90;;;;;;4975417;28;20799;-87
2022/12/05 00:11:15;;;;;;;25.27;11.30;;;4.10;99.90;;;;;;4973843;28;20488;-89
2022/12/05 00:13:43;;;;;;;26.20;12.83;;;4.10;99.90;;;;;;4975311;28;20176;-89
2022/12/05 00:16:15;;;;;;;27.00;13.40;;;4.10;99.90;;;;;;4974279;28;20475;-88
2022/12/05 00:18:40;;;;;;;23.50;12.53;;;4.10;99.90;;;;;;4974996;28;20494;-87
2022/12/05 00:21:10;;;;;;;23.23;12.40;;;4.10;99.90;;;;;;4974590;28;20472;-91
2022/12/05 00:23:36;;;;;;;20.53;10.67;;;4.10;99.90;;;;;;4975003;28;20714;-90
2022/12/05 00:26:04;;;;;;;18.70;11.00;;;4.10;99.90;;;;;;4957539;28;20515;-87
2022/12/05 00:28:32;;;;;;;22.00;12.70;;;4.10;99.90;;;;;;4974597;28;20181;-86
2022/12/05 00:31:08;;;;;;;25.10;11.07;;;4.00;99.90;;;;;;4974626;28;20416;-86
2022/12/05 00:33:34;;;;;;;26.80;11.53;;;4.00;99.90;;;;;;4957382;28;20438;-89
2022/12/05 00:36:08;;;;;;;21.27;10.90;;;4.10;99.90;;;;;;4974294;28;20969;-91
2022/12/05 00:38:35;;;;;;;24.93;13.30;;;4.10;99.90;;;;;;4974393;28;20221;-86
2022/12/05 00:41:09;;;;;;;23.67;12.10;;;4.10;99.90;;;;;;4957263;28;20797;-85
2022/12/05 00:43:34;;;;;;;16.60;10.50;;;4.00;99.90;;;;;;4957354;28;20420;-89
2022/12/05 00:46:09;;;;;;;18.40;10.40;;;4.00;99.90;;;;;;4974468;28;20444;-88
2022/12/05 00:48:34;;;;;;;17.03;9.80;;;4.00;99.90;;;;;;4957163;28;20180;-89
2022/12/05 00:51:12;;;;;;;21.13;11.13;;;4.10;99.90;;;;;;4957115;28;20780;-88
2022/12/05 00:53:37;;;;;;;17.33;9.00;;;4.10;99.90;;;;;;4957250;28;20185;-86
2022/12/05 00:56:05;;;;;;;23.40;11.63;;;4.10;99.90;;;;;;4974757;28;20472;-87
2022/12/05 00:58:32;;;;;;;22.43;10.67;;;4.10;99.90;;;;;;4957166;28;20190;-87
2022/12/05 01:01:04;;;;;;;17.97;10.63;;;4.10;99.90;;;;;;4957280;28;20863;-86
2022/12/05 01:03:29;;;;;;;18.27;12.27;;;4.10;99.90;;;;;;4957237;28;20424;-87
2022/12/05 01:05:57;;;;;;;20.90;11.00;;;4.10;99.90;;;;;;4974318;28;20412;-86
2022/12/05 01:08:23;;;;;;;19.63;10.23;;;4.20;99.90;;;;;;4957300;28;20621;-87
2022/12/05 01:10:53;;;;;;;18.63;12.77;;;4.20;99.90;;;;;;4957312;28;20932;-86
2022/12/05 01:13:19;;;;;;;22.60;11.83;;;4.20;99.90;;;;;;4957386;28;20444;-87
2022/12/05 01:15:44;;;;;;;20.77;10.03;;;4.10;99.90;;;;;;4974752;28;20519;-89
2022/12/05 01:18:10;;;;;;;23.50;10.60;;;4.20;99.90;;;;;;4974632;28;20172;-86
2022/12/05 01:20:38;;;;;;;22.20;12.97;;;4.20;99.90;;;;;;4974252;28;20177;-89
2022/12/05 01:23:04;;;;;;;16.87;9.90;;;4.20;99.90;;;;;;4974644;28;20160;-89
2022/12/05 01:25:29;;;;;;;16.70;8.87;;;4.20;99.90;;;;;;4974717;28;20446;-89
2022/12/05 01:27:55;;;;;;;21.80;11.70;;;4.20;99.90;;;;;;4959813;28;20192;-89
2022/12/05 01:30:20;;;;;;;19.63;10.70;;;4.20;99.90;;;;;;4960767;28;20252;-90
2022/12/05 01:32:46;;;;;;;18.63;11.10;;;4.20;99.90;;;;;;4978331;28;20271;-87
2022/12/05 01:35:14;;;;;;;20.70;10.70;;;4.20;99.90;;;;;;4977733;28;20220;-89
2022/12/05 01:37:40;;;;;;;17.13;9.77;;;4.30;99.90;;;;;;4977973;28;20266;-86
2022/12/05 01:40:07;;;;;;;17.70;10.37;;;4.20;99.90;;;;;;4960999;28;21044;-86
2022/12/05 01:42:32;;;;;;;21.70;11.47;;;4.30;99.90;;;;;;4978262;28;20173;-90
2022/12/05 01:45:13;;;;;;;23.57;12.33;;;4.30;99.90;;;;;;4961241;28;20419;-90
2022/12/05 01:47:41;;;;;;;17.03;9.50;;;4.30;99.90;;;;;;4960872;28;20474;-89
2022/12/05 01:50:07;;;;;;;19.20;9.60;;;4.30;99.90;;;;;;4977957;28;20408;-89
2022/12/05 01:52:33;;;;;;;13.43;8.70;;;4.30;99.90;;;;;;4977990;28;20933;-89
2022/12/05 01:55:04;;;;;;;16.83;10.00;;;4.30;99.90;;;;;;4978095;28;20467;-89
2022/12/05 01:57:30;;;;;;;16.00;9.43;;;4.30;99.90;;;;;;4977968;28;20423;-86
2022/12/05 02:00:01;;;;;;;18.73;11.70;;;4.30;99.90;;;;;;4960657;28;20431;-86
2022/12/05 02:02:29;;;;;;;20.63;8.87;;;4.30;99.90;;;;;;4960752;28;20474;-87
2022/12/05 02:05:22;;;;;;;17.00;11.17;;;4.30;99.90;;;;;;4977332;28;20417;-89
2022/12/05 02:07:48;;;;;;;21.73;11.13;;;4.30;99.90;;;;;;4953482;28;20426;-88
2022/12/05 02:10:14;;;;;;;18.50;9.70;;;4.30;99.90;;;;;;4977683;28;20450;-89
2022/12/05 02:12:42;;;;;;;21.30;10.27;;;4.30;99.90;;;;;;4977579;28;20166;-88
2022/12/05 02:15:39;;;;;;;16.73;11.93;;;4.30;99.90;;;;;;4977907;28;20201;-89
2022/12/05 02:18:51;;;;;;;21.00;11.00;;;4.30;99.90;;;;;;4960624;28;20448;-88
2022/12/05 02:21:47;;;;;;;16.70;9.53;;;4.30;99.90;;;;;;4953567;28;20434;-88
2022/12/05 02:24:36;;;;;;;18.00;10.20;;;4.30;99.90;;;;;;4977729;28;20419;-88
2022/12/05 02:27:20;;;;;;;17.40;9.60;;;4.30;99.90;;;;;;4960385;28;20450;-89
2022/12/05 02:30:01;;;;;;;16.03;9.50;;;4.30;99.90;;;;;;4977557;28;20426;-87
2022/12/05 02:32:29;;;;;;;13.40;8.30;;;4.30;99.90;;;;;;4960211;28;20575;-86
2022/12/05 02:35:34;;;;;;;20.00;8.93;;;4.40;99.90;;;;;;4977009;28;20820;-89
2022/12/05 02:38:12;;;;;;;19.43;11.00;;;4.30;99.90;;;;;;4946895;28;20467;-88
2022/12/05 02:41:00;;;;;;;19.17;9.77;;;4.30;99.90;;;;;;4959803;28;20438;-89
2022/12/05 02:43:36;;;;;;;15.83;8.37;;;4.30;99.90;;;;;;4977307;28;20913;-87
2022/12/05 02:46:11;;;;;;;19.90;8.93;;;4.30;99.90;;;;;;4959844;28;20486;-89
2022/12/05 02:48:38;;;;;;;17.57;9.97;;;4.30;99.90;;;;;;4960031;28;20432;-90
2022/12/05 02:51:05;;;;;;;17.67;8.27;;;4.30;99.90;;;;;;4976822;28;20487;-87
2022/12/05 02:53:31;;;;;;;18.63;9.93;;;4.30;99.90;;;;;;4977002;28;20823;-88
2022/12/05 02:55:57;;;;;;;15.10;9.90;;;4.30;99.90;;;;;;4976768;28;20514;-88
2022/12/05 02:58:31;;;;;;;17.87;9.87;;;4.30;99.90;;;;;;4959699;28;20878;-87
2022/12/05 03:01:01;;;;;;;18.87;9.50;;;4.30;99.90;;;;;;4977140;28;20219;-89
2022/12/05 03:03:35;;;;;;;17.20;10.90;;;4.30;99.90;;;;;;4976602;28;20453;-87
2022/12/05 03:06:13;;;;;;;15.00;9.67;;;4.30;99.90;;;;;;4976512;28;20484;-86
2022/12/05 03:09:15;;;;;;;17.00;9.23;;;4.30;99.90;;;;;;4959217;28;20431;-89
2022/12/05 03:11:46;;;;;;;21.23;10.30;;;4.30;99.90;;;;;;4958604;28;20515;-90
2022/12/05 03:14:20;;;;;;;14.10;9.07;;;4.30;99.90;;;;;;4976615;28;20421;-88
2022/12/05 03:16:49;;;;;;;17.50;9.87;;;4.30;99.90;;;;;;4976778;28;20963;-89
2022/12/05 03:19:19;;;;;;;17.43;9.40;;;4.30;99.90;;;;;;4976644;28;20429;-89
2022/12/05 03:21:52;;;;;;;20.60;10.20;;;4.40;99.90;;;;;;4976186;28;20527;-90
2022/12/05 03:24:18;;;;;;;18.23;10.00;;;4.30;99.90;;;;;;4976398;28;20413;-89
2022/12/05 03:27:05;;;;;;;15.20;7.30;;;4.30;99.90;;;;;;4975970;28;20797;-87
2022/12/05 03:29:38;;;;;;;14.40;9.30;;;4.30;99.90;;;;;;4976213;28;20180;-90
2022/12/05 03:32:26;;;;;;;12.13;7.87;;;4.30;99.90;;;;;;4976342;28;20461;-89
2022/12/05 03:35:03;;;;;;;12.93;7.80;;;4.30;99.90;;;;;;4975668;28;20576;-88
2022/12/05 03:37:31;;;;;;;13.80;8.57;;;4.40;99.90;;;;;;4958567;28;20499;-88
2022/12/05 03:40:24;;;;;;;14.77;9.33;;;4.30;99.90;;;;;;4976099;28;20763;-89
2022/12/05 03:43:09;;;;;;;17.73;8.43;;;4.30;99.90;;;;;;4974962;28;20447;-88
2022/12/05 03:45:44;;;;;;;18.10;9.60;;;4.30;99.90;;;;;;4975968;28;20420;-86
2022/12/05 03:48:31;;;;;;;19.97;9.40;;;4.40;99.90;;;;;;4958562;28;20954;-88
2022/12/05 03:50:59;;;;;;;20.23;9.27;;;4.40;99.90;;;;;;4974816;28;20418;-89
2022/12/05 03:53:34;;;;;;;19.73;10.17;;;4.30;99.90;;;;;;4975784;28;20414;-86
2022/12/05 03:56:18;;;;;;;15.50;9.23;;;4.40;99.90;;;;;;4958389;28;20551;-86
2022/12/05 03:58:55;;;;;;;22.80;9.97;;;4.40;99.90;;;;;;4975720;28;20853;-89
2022/12/05 04:01:23;;;;;;;16.47;8.70;;;4.40;99.90;;;;;;4975683;28;20486;-86
2022/12/05 04:03:54;;;;;;;14.77;8.83;;;4.40;99.90;;;;;;4958448;28;20421;-87
2022/12/05 04:06:27;;;;;;;21.07;12.10;;;4.40;99.90;;;;;;4958139;28;20422;-88
2022/12/05 04:09:01;;;;;;;23.30;10.33;;;4.40;99.90;;;;;;4958216;28;20796;-86
2022/12/05 04:11:48;;;;;;;21.60;9.43;;;4.40;99.90;;;;;;5070900;28;20549;-85
2022/12/05 04:14:45;;;;;;;14.67;9.27;;;4.40;99.90;;;;;;5070614;28;20780;-87
2022/12/05 04:17:39;;;;;;;20.07;9.73;;;4.40;99.90;;;;;;5065874;28;20485;-86
2022/12/05 04:23:15;;;;;;;20.23;10.63;;;4.30;99.90;;;;;;5069230;28;20889;-86
2022/12/05 04:26:13;;;;;;;17.50;8.57;;;4.30;99.90;;;;;;5070405;28;20412;-85
2022/12/05 04:29:09;;;;;;;17.97;9.30;;;4.30;99.90;;;;;;5066003;28;20932;-85
2022/12/05 04:31:46;;;;;;;16.83;8.87;;;4.40;99.90;;;;;;5067200;28;20436;-85
2022/12/05 04:34:14;;;;;;;19.33;10.43;;;4.40;99.90;;;;;;5069138;28;20447;-85
2022/12/05 04:36:50;;;;;;;16.57;9.17;;;4.30;99.90;;;;;;5068766;28;20420;-85
2022/12/05 04:39:18;;;;;;;26.87;11.73;;;4.30;99.90;;;;;;5068741;28;20420;-85
2022/12/05 04:41:54;;;;;;;22.90;9.57;;;4.30;99.90;;;;;;5068672;28;20497;-85
2022/12/05 04:44:25;;;;;;;15.50;9.17;;;4.30;99.90;;;;;;5069886;28;20513;-85
2022/12/05 04:46:53;;;;;;;22.70;9.57;;;4.30;99.90;;;;;;5069903;28;20412;-84
2022/12/05 04:49:23;;;;;;;16.20;10.40;;;4.30;99.90;;;;;;5069428;28;20413;-85
2022/12/05 04:51:51;;;;;;;14.97;10.47;;;4.30;99.90;;;;;;5069759;28;20467;-85
2022/12/05 04:54:28;;;;;;;16.80;10.40;;;4.30;99.90;;;;;;5069631;28;20483;-84
2022/12/05 04:56:58;;;;;;;18.20;10.17;;;4.30;99.90;;;;;;5068498;28;20441;-84
2022/12/05 04:59:23;;;;;;;21.63;9.47;;;4.30;99.90;;;;;;5069745;28;20436;-85
2022/12/05 05:02:01;;;;;;;21.40;10.20;;;4.20;99.90;;;;;;5068477;28;20928;-86
2022/12/05 05:04:45;;;;;;;17.23;9.23;;;4.20;99.90;;;;;;5067962;28;20231;-87
2022/12/05 05:07:12;;;;;;;18.67;10.43;;;4.20;99.90;;;;;;5069400;28;20410;-86
2022/12/05 05:09:39;;;;;;;15.43;7.67;;;4.20;99.90;;;;;;5067716;28;20472;-86
2022/12/05 05:12:05;;;;;;;15.40;8.17;;;4.20;99.90;;;;;;5068213;28;20437;-86
2022/12/05 05:14:31;;;;;;;17.67;9.90;;;4.20;99.90;;;;;;5069437;28;20439;-86
2022/12/05 05:16:57;;;;;;;12.20;8.30;;;4.20;99.90;;;;;;5069312;28;20426;-87
2022/12/05 05:19:22;;;;;;;14.80;9.50;;;4.20;99.90;;;;;;5067678;28;20234;-85
2022/12/05 05:21:48;;;;;;;13.30;8.60;;;4.30;99.90;;;;;;5062302;28;20414;-86
2022/12/05 05:24:17;;;;;;;17.30;9.70;;;4.20;99.90;;;;;;5056006;28;20533;-86
2022/12/05 05:26:44;;;;;;;15.37;8.40;;;4.20;99.90;;;;;;5054683;28;20701;-85
2022/12/05 05:29:11;;;;;;;12.63;8.37;;;4.20;99.90;;;;;;5054634;28;20415;-86
2022/12/05 05:31:38;;;;;;;22.07;9.17;;;4.20;99.90;;;;;;5054634;28;20429;-86
2022/12/05 05:34:05;;;;;;;17.13;9.73;;;4.20;99.90;;;;;;5055833;28;20412;-86
2022/12/05 05:36:31;;;;;;;19.50;8.10;;;4.20;99.90;;;;;;5053976;28;20421;-86
2022/12/05 05:38:59;;;;;;;18.43;9.23;;;4.20;99.90;;;;;;5055583;28;20421;-85
2022/12/05 05:41:33;;;;;;;20.57;10.40;;;4.20;99.90;;;;;;5055541;28;20929;-85
2022/12/05 05:43:59;;;;;;;21.33;9.70;;;4.20;99.90;;;;;;5054262;28;20428;-85
2022/12/05 05:46:28;;;;;;;28.90;11.27;;;4.20;99.90;;;;;;5055212;28;20425;-85
2022/12/05 05:48:54;;;;;;;30.47;13.30;;;4.10;99.90;;;;;;5055149;28;20522;-85
2022/12/05 05:51:20;;;;;;;31.90;11.13;;;4.10;99.90;;;;;;5054890;28;21053;-85
2022/12/05 05:53:45;;;;;;;31.50;13.73;;;4.10;99.90;;;;;;5055243;28;20173;-86
2022/12/05 05:56:13;;;;;;;31.00;12.60;;;4.10;99.90;;;;;;5053954;28;21157;-86
2022/12/05 05:58:42;;;;;;;33.87;12.90;;;4.20;99.90;;;;;;5055104;28;20167;-86
2022/12/05 06:01:11;;;;;;;31.73;12.40;;;4.10;99.90;;;;;;5055289;28;20467;-86
2022/12/05 06:03:37;;;;;;;29.70;14.20;;;4.10;99.90;;;;;;5053892;28;20425;-86
2022/12/05 06:06:06;;;;;;;33.63;13.10;;;4.10;99.90;;;;;;5054702;28;20416;-86
2022/12/05 06:08:33;;;;;;;28.67;13.50;;;4.00;99.90;;;;;;5055071;28;20897;-86
2022/12/05 06:11:03;;;;;;;40.53;15.60;;;4.00;99.90;;;;;;5054774;28;20485;-86
2022/12/05 06:13:28;;;;;;;34.33;17.37;;;4.10;99.90;;;;;;5055332;28;20412;-86
2022/12/05 06:15:54;;;;;;;36.40;14.73;;;4.00;99.90;;;;;;5055094;28;20490;-86
2022/12/05 06:18:19;;;;;;;38.10;15.60;;;4.00;99.90;;;;;;5053885;28;20181;-87
2022/12/05 06:20:55;;;;;;;43.03;16.37;;;4.00;99.90;;;;;;5054847;28;20178;-87
2022/12/05 06:23:25;;;;;;;36.37;15.77;;;4.00;99.90;;;;;;5055040;28;20175;-87
2022/12/05 06:25:52;;;;;;;42.57;18.47;;;4.00;99.90;;;;;;5055037;28;20475;-88
2022/12/05 06:28:19;;;;;;;36.63;16.17;;;4.00;99.90;;;;;;5054040;28;20846;-89
2022/12/05 06:30:45;;;;;;;32.50;13.47;;;3.90;99.90;;;;;;5055075;28;20510;-87
2022/12/05 06:33:11;;;;;;;30.07;14.97;;;4.00;99.90;;;;;;5053010;28;20413;-88
2022/12/05 06:35:37;;;;;;;42.57;17.23;;;4.00;99.90;;;;;;5053712;28;20544;-89
2022/12/05 06:38:03;;;;;;;35.37;15.47;;;4.00;99.90;;;;;;5055252;28;20418;-87
2022/12/05 06:40:29;;;;;;;28.40;14.77;;;4.00;99.90;;;;;;5054172;28;20175;-88
2022/12/05 06:42:54;;;;;;;37.50;15.47;;;4.00;99.90;;;;;;5055029;28;20405;-90
2022/12/05 06:45:20;;;;;;;33.70;15.70;;;4.00;99.90;;;;;;5054604;28;20185;-86
2022/12/05 06:47:45;;;;;;;40.77;17.07;;;4.00;99.90;;;;;;5054441;28;20174;-87
2022/12/05 06:50:11;;;;;;;46.20;18.50;;;4.00;99.90;;;;;;5054413;28;20223;-88
2022/12/05 06:52:36;;;;;;;41.00;16.57;;;3.90;99.90;;;;;;5053432;28;20540;-88
2022/12/05 06:55:02;;;;;;;37.63;16.37;;;3.80;99.90;;;;;;5053411;28;20176;-88
2022/12/05 06:57:28;;;;;;;42.50;16.43;;;3.80;99.90;;;;;;5055202;28;20170;-88
2022/12/05 07:01:37;;;;;;;36.10;17.30;;;3.80;99.90;;;;;;5054984;28;20166;-87
2022/12/05 07:02:42;;;;;;;43.73;19.00;;;3.90;99.90;;;;;;5055625;28;20417;-86
2022/12/05 07:05:08;;;;;;;42.47;16.50;;;3.90;99.90;;;;;;5053730;28;20538;-89
2022/12/05 07:07:33;;;;;;;43.20;16.20;;;3.90;99.90;;;;;;5054675;28;20828;-89
2022/12/05 07:09:59;;;;;;;44.90;17.80;;;3.90;99.90;;;;;;5053194;28;20517;-88
2022/12/05 07:12:24;;;;;;;51.50;20.47;;;3.90;99.90;;;;;;5053362;28;20575;-87
2022/12/05 07:14:50;;;;;;;45.50;17.33;;;3.90;99.90;;;;;;5053659;28;20181;-90
2022/12/05 07:17:20;;;;;;;47.77;17.67;;;3.80;99.90;;;;;;5054663;28;20255;-87
2022/12/05 07:19:49;;;;;;;43.97;18.03;;;3.80;99.90;;;;;;5053003;28;20208;-89
2022/12/05 07:22:16;;;;;;;39.80;19.40;;;3.70;99.90;;;;;;5053278;28;20432;-89
2022/12/05 07:24:42;;;;;;;34.67;15.90;;;3.60;99.90;;;;;;5054365;28;20419;-88
2022/12/05 07:27:07;;;;;;;44.73;17.17;;;3.60;99.90;;;;;;5054260;28;20463;-89
2022/12/05 07:29:33;;;;;;;42.43;17.97;;;3.60;99.90;;;;;;5052889;28;20456;-88
2022/12/05 07:31:58;;;;;;;31.57;16.13;;;3.60;99.90;;;;;;5052607;28;20185;-89
2022/12/05 07:34:24;;;;;;;34.27;15.17;;;3.50;99.90;;;;;;5053280;28;20549;-85
2022/12/05 07:36:49;;;;;;;36.27;15.77;;;3.50;99.90;;;;;;5053560;28;20178;-86
2022/12/05 07:39:15;;;;;;;34.30;16.70;;;3.50;99.90;;;;;;5052072;28;20589;-87
2022/12/05 07:41:41;;;;;;;35.60;14.87;;;3.60;99.90;;;;;;5053518;28;20172;-86
2022/12/05 07:44:10;;;;;;;32.83;13.00;;;3.50;99.90;;;;;;5053123;28;20204;-86
2022/12/05 07:46:36;;;;;;;36.77;14.67;;;3.50;99.90;;;;;;5051790;28;20408;-85
2022/12/05 07:49:02;;;;;;;37.20;15.03;;;3.60;99.90;;;;;;5052921;28;20415;-86
2022/12/05 07:51:28;;;;;;;40.37;16.27;;;3.50;99.90;;;;;;5051951;28;20578;-87
2022/12/05 07:53:53;;;;;;;32.50;16.27;;;3.50;99.90;;;;;;5051469;28;20166;-85
2022/12/05 07:56:19;;;;;;;30.40;13.23;;;3.50;99.90;;;;;;5050616;28;20171;-85
2022/12/05 07:58:47;;;;;;;32.93;15.63;;;3.50;99.90;;;;;;5051791;28;20170;-86
2022/12/05 08:01:19;;;;;;;38.40;13.97;;;3.40;99.90;;;;;;5051682;28;20221;-85
2022/12/05 08:03:45;;;;;;;38.10;15.20;;;3.30;99.90;;;;;;5051682;28;20416;-87
2022/12/05 08:06:18;;;;;;;37.03;14.30;;;3.30;99.90;;;;;;5050649;28;20418;-86
2022/12/05 08:08:44;;;;;;;28.67;14.27;;;3.30;99.90;;;;;;5050662;28;20470;-86
2022/12/05 08:11:15;;;;;;;30.87;13.67;;;3.30;99.90;;;;;;5051651;28;20557;-86
2022/12/05 08:13:42;;;;;;;36.17;14.70;;;3.20;99.90;;;;;;5052911;28;20463;-86
2022/12/05 08:16:13;;;;;;;33.10;15.90;;;3.20;99.90;;;;;;5051847;28;20421;-87
2022/12/05 08:18:40;;;;;;;21.90;12.10;;;3.20;99.90;;;;;;5053112;28;20408;-88
2022/12/05 08:21:11;;;;;;;31.50;13.80;;;3.30;99.90;;;;;;5051788;28;20508;-89
2022/12/05 08:23:37;;;;;;;32.23;13.57;;;3.20;99.90;;;;;;5053154;28;20414;-86
2022/12/05 08:26:14;;;;;;;36.80;14.50;;;3.20;99.90;;;;;;5053150;28;20422;-89
2022/12/05 08:28:41;;;;;;;27.13;14.77;;;3.30;99.90;;;;;;5052668;28;20422;-87
2022/12/05 08:31:13;;;;;;;35.23;13.77;;;3.20;99.90;;;;;;5053218;28;20463;-87
2022/12/05 08:33:39;;;;;;;27.10;11.53;;;3.20;99.90;;;;;;5053495;28;20432;-87
2022/12/05 08:36:07;;;;;;;26.73;11.43;;;3.20;99.90;;;;;;5053181;28;20466;-87
2022/12/05 08:38:33;;;;;;;28.03;12.10;;;3.20;99.90;;;;;;5053175;28;20173;-86
2022/12/05 08:41:04;;;;;;;29.20;13.70;;;3.20;99.90;;;;;;5052009;28;20849;-89
2022/12/05 08:43:33;;;;;;;25.10;13.03;;;3.20;99.90;;;;;;5053514;28;20465;-89
2022/12/05 08:45:59;;;;;;;24.03;12.83;;;3.20;99.90;;;;;;5053287;28;20455;-87
2022/12/05 08:48:29;;;;;;;22.50;11.40;;;3.30;99.90;;;;;;5053206;28;20405;-89
2022/12/05 08:50:55;;;;;;;31.73;13.07;;;3.30;99.90;;;;;;5052698;28;20473;-89
2022/12/05 08:53:20;;;;;;;22.50;13.67;;;3.20;99.90;;;;;;5052941;28;20498;-88
2022/12/05 08:55:46;;;;;;;26.77;11.53;;;3.20;99.90;;;;;;5051776;28;20182;-86
2022/12/05 08:58:12;;;;;;;23.67;11.50;;;3.10;99.90;;;;;;5055145;28;20223;-88
2022/12/05 09:00:39;;;;;;;22.53;11.50;;;3.20;99.90;;;;;;5055941;28;20424;-88
2022/12/05 09:03:04;;;;;;;23.47;11.97;;;3.10;99.90;;;;;;5057109;28;20174;-88
2022/12/05 09:05:30;;;;;;;24.27;11.57;;;3.10;99.90;;;;;;5055320;28;20424;-89
2022/12/05 09:07:56;;;;;;;20.30;10.60;;;3.00;99.90;;;;;;5055472;28;20650;-87
2022/12/05 09:10:21;;;;;;;22.90;10.40;;;3.10;99.90;;;;;;5055318;28;20244;-90
2022/12/05 09:12:49;;;;;;;24.13;11.87;;;3.30;99.90;;;;;;5057265;28;20181;-89
2022/12/05 09:15:14;;;;;;;21.93;12.10;;;3.30;99.90;;;;;;5055399;28;20170;-89
2022/12/05 09:17:40;;;;;;;19.70;10.27;;;3.20;99.90;;;;;;5056741;28;20409;-87
2022/12/05 09:20:06;;;;;;;19.13;10.70;;;3.20;99.90;;;;;;5054074;28;20169;-85
2022/12/05 09:22:32;;;;;;;21.63;11.50;;;3.20;99.90;;;;;;5053203;28;20174;-86
2022/12/05 09:24:59;;;;;;;30.83;14.17;;;3.30;99.90;;;;;;5053563;28;20413;-85
2022/12/05 09:27:26;;;;;;;25.57;12.20;;;3.30;99.90;;;;;;5055387;28;20442;-86
2022/12/05 09:29:51;;;;;;;16.37;10.47;;;3.20;99.90;;;;;;5055529;28;20448;-86
2022/12/05 09:32:17;;;;;;;22.50;12.00;;;3.20;99.90;;;;;;5055412;28;20920;-86
2022/12/05 09:34:42;;;;;;;20.60;10.20;;;3.20;99.90;;;;;;5053630;28;20173;-86
2022/12/05 09:37:08;;;;;;;20.93;11.13;;;3.20;99.90;;;;;;5054360;28;20194;-86
2022/12/05 09:39:34;;;;;;;22.50;10.63;;;3.20;99.90;;;;;;5053334;28;20188;-85
2022/12/05 09:42:08;;;;;;;18.20;9.30;;;3.30;99.90;;;;;;5053073;28;20183;-85
2022/12/05 09:45:14;;;;;;;19.50;9.93;;;3.40;99.90;;;;;;5053154;28;20412;-86
2022/12/05 09:47:56;;;;;;;21.63;10.27;;;3.20;99.90;;;;;;5052468;28;20491;-87
2022/12/05 09:50:25;;;;;;;21.07;10.87;;;3.30;99.90;;;;;;5050605;28;20481;-85
2022/12/05 09:53:08;;;;;;;19.07;8.97;;;3.30;99.90;;;;;;5053417;28;21095;-87
2022/12/05 09:56:04;;;;;;;19.57;10.43;;;3.40;99.90;;;;;;5054965;28;20416;-88
2022/12/05 09:58:44;;;;;;;16.33;8.80;;;3.40;99.90;;;;;;5043186;28;20452;-86
2022/12/05 10:01:37;;;;;;;14.23;9.80;;;3.40;99.90;;;;;;5053487;28;20424;-89
2022/12/05 10:04:28;;;;;;;22.10;11.40;;;3.40;99.90;;;;;;5051402;28;20414;-86
2022/12/05 10:07:22;;;;;;;23.90;9.77;;;3.40;99.90;;;;;;5053292;28;20516;-86
2022/12/05 10:10:12;;;;;;;18.87;10.90;;;3.40;99.90;;;;;;5051254;28;20472;-86
2022/12/05 10:13:19;;;;;;;20.60;11.03;;;3.40;99.90;;;;;;5054146;28;20440;-87
2022/12/05 10:15:52;;;;;;;17.30;9.40;;;3.40;99.90;;;;;;5075212;28;20410;-87
2022/12/05 10:18:40;;;;;;;18.27;7.90;;;3.40;99.90;;;;;;5053819;28;20836;-87
2022/12/05 10:21:24;;;;;;;17.03;9.03;;;3.40;99.90;;;;;;5046747;28;20460;-86
2022/12/05 10:24:00;;;;;;;16.80;8.43;;;3.30;99.90;;;;;;5054685;28;20408;-86
2022/12/05 10:26:35;;;;;;;15.40;9.50;;;3.30;99.90;;;;;;5053498;28;20415;-87
2022/12/05 10:29:30;;;;;;;20.97;8.50;;;3.40;99.90;;;;;;5053010;28;20418;-86
2022/12/05 10:32:04;;;;;;;15.27;7.83;;;3.40;99.90;;;;;;5053544;28;20441;-86
2022/12/05 10:34:41;;;;;;;11.87;7.20;;;3.30;99.90;;;;;;5054722;28;20404;-87
2022/12/05 10:37:20;;;;;;;15.23;9.20;;;3.30;99.90;;;;;;5054890;28;20424;-86
2022/12/05 10:39:47;;;;;;;17.00;8.43;;;3.40;99.90;;;;;;5053388;28;20988;-86
2022/12/05 10:42:16;;;;;;;16.20;7.70;;;3.40;99.90;;;;;;5053242;28;20421;-86
2022/12/05 10:44:42;;;;;;;15.07;8.77;;;3.30;99.90;;;;;;5054496;28;20504;-85
2022/12/05 10:47:08;;;;;;;19.03;8.43;;;3.30;99.90;;;;;;5053189;28;20426;-86
2022/12/05 10:49:34;;;;;;;13.07;9.43;;;3.30;99.90;;;;;;5054017;28;20494;-87
2022/12/05 10:52:00;;;;;;;17.73;8.83;;;3.40;99.90;;;;;;5053389;28;20422;-86
2022/12/05 10:54:31;;;;;;;18.63;9.27;;;3.30;99.90;;;;;;5054310;28;20457;-86
2022/12/05 10:56:57;;;;;;;16.07;7.77;;;3.30;99.90;;;;;;5053151;28;20170;-87
2022/12/05 10:59:26;;;;;;;11.50;6.33;;;3.30;99.90;;;;;;5054259;28;20425;-87
2022/12/05 11:01:56;;;;;;;13.37;7.93;;;3.30;99.90;;;;;;5054173;28;20428;-86
2022/12/05 11:04:24;;;;;;;18.13;8.20;;;3.40;99.90;;;;;;5052265;28;21054;-88
2022/12/05 11:06:52;;;;;;;12.57;7.40;;;3.40;99.90;;;;;;5052817;28;20897;-86
2022/12/05 11:09:28;;;;;;;13.60;8.07;;;3.40;99.90;;;;;;5053806;28;20400;-86
2022/12/05 11:12:20;;;;;;;19.30;7.50;;;3.40;99.90;;;;;;5052637;28;20960;-88
2022/12/05 11:14:58;;;;;;;19.40;8.70;;;3.30;99.90;;;;;;5053872;28;20923;-86
2022/12/05 11:17:33;;;;;;;15.80;7.30;;;3.40;99.90;;;;;;5053711;28;20412;-89
2022/12/05 11:19:59;;;;;;;13.03;7.40;;;3.30;99.90;;;;;;5052170;28;20423;-86
2022/12/05 11:22:33;;;;;;;13.67;7.67;;;3.30;99.90;;;;;;5053647;28;20503;-87
2022/12/05 11:24:58;;;;;;;15.27;9.07;;;3.30;99.90;;;;;;5053874;28;20440;-87
2022/12/05 11:27:31;;;;;;;20.03;7.37;;;3.30;99.90;;;;;;5053244;28;20799;-91
2022/12/05 11:30:00;;;;;;;14.80;7.90;;;3.40;99.90;;;;;;5053263;28;20233;-89
2022/12/05 11:32:28;;;;;;;12.13;6.70;;;3.40;99.90;;;;;;5053504;28;20462;-92
2022/12/05 11:35:27;;;;;;;17.50;7.97;;;3.30;99.90;;;;;;5053187;28;20429;-91
2022/12/05 11:37:57;;;;;;;16.73;8.53;;;3.40;99.90;;;;;;5053314;28;20452;-92
2022/12/05 11:40:35;;;;;;;17.57;7.73;;;3.40;99.90;;;;;;5058164;28;20416;-92
2022/12/05 11:43:25;;;;;;;13.73;7.87;;;3.40;99.90;;;;;;5056805;28;20495;-91
2022/12/05 11:45:59;;;;;;;14.43;7.77;;;3.40;99.90;;;;;;5055116;28;20433;-91
2022/12/05 11:48:38;;;;;;;12.43;7.53;;;3.40;99.90;;;;;;5054275;28;20941;-94
2022/12/05 11:51:39;;;;;;;16.87;7.80;;;3.50;99.90;;;;;;5052295;28;20474;-91
2022/12/05 11:54:34;;;;;;;12.33;7.07;;;3.50;99.90;;;;;;5053288;28;20416;-93
2022/12/05 11:57:19;;;;;;;17.83;9.40;;;3.60;99.90;;;;;;5054059;28;20518;-87
2022/12/05 12:00:35;;;;;;;12.47;6.40;;;3.50;99.90;;;;;;5053700;28;20435;-89
2022/12/05 12:03:18;;;;;;;14.50;6.93;;;3.60;99.90;;;;;;5000576;28;20420;-89
2022/12/05 12:06:22;;;;;;;14.70;6.50;;;3.70;99.90;;;;;;5053275;28;20424;-94
2022/12/05 12:09:04;;;;;;;16.40;7.50;;;3.60;99.90;;;;;;5030786;28;20416;-93
2022/12/05 12:11:48;;;;;;;17.40;7.30;;;3.50;99.90;;;;;;5054985;28;20492;-93
2022/12/05 12:14:31;;;;;;;15.67;7.37;;;3.50;99.90;;;;;;5053206;28;20909;-93
2022/12/05 12:17:20;;;;;;;14.77;6.97;;;3.60;99.90;;;;;;5053194;28;20410;-91
2022/12/05 12:19:55;;;;;;;14.60;7.87;;;3.50;99.90;;;;;;5052741;28;20404;-94
2022/12/05 12:22:44;;;;;;;15.10;7.87;;;3.50;99.90;;;;;;5052933;28;20432;-93
2022/12/05 12:25:24;;;;;;;12.53;5.87;;;3.60;99.90;;;;;;5052998;28;20417;-91
2022/12/05 12:28:13;;;;;;;19.43;8.57;;;3.50;99.90;;;;;;5053739;28;20412;-91
2022/12/05 12:30:50;;;;;;;12.90;7.57;;;3.50;99.90;;;;;;5053957;28;20468;-92
2022/12/05 12:33:41;;;;;;;14.50;7.17;;;3.50;99.90;;;;;;5057211;28;20408;-92
2022/12/05 12:36:12;;;;;;;9.87;5.83;;;3.60;99.90;;;;;;5057675;28;20474;-92
2022/12/05 12:39:08;;;;;;;14.10;6.20;;;3.60;99.90;;;;;;5056755;28;20409;-91
2022/12/05 12:41:55;;;;;;;13.67;6.60;;;3.40;99.90;;;;;;5056903;28;20424;-93
2022/12/05 12:44:43;;;;;;;16.67;6.40;;;3.40;99.90;;;;;;5056629;28;20420;-92
2022/12/05 12:47:22;;;;;;;12.27;5.50;;;3.40;99.90;;;;;;5056819;28;20420;-90
2022/12/05 12:50:05;;;;;;;14.60;6.37;;;3.30;99.90;;;;;;5056267;28;20828;-91
2022/12/05 12:52:59;;;;;;;11.97;5.93;;;3.30;99.90;;;;;;5056567;28;20416;-92
2022/12/05 12:56:02;;;;;;;8.27;5.63;;;3.40;99.90;;;;;;5056563;28;20823;-92
2022/12/05 12:59:06;;;;;;;13.80;7.33;;;3.40;99.90;;;;;;5036563;28;20418;-91
2022/12/05 13:01:41;;;;;;;11.27;5.83;;;3.30;99.90;;;;;;5037296;28;20421;-91
2022/12/05 13:04:18;;;;;;;17.17;6.30;;;3.30;99.90;;;;;;5036088;28;20410;-93
2022/12/05 13:06:49;;;;;;;10.67;6.50;;;3.30;99.90;;;;;;5036460;28;20414;-91
2022/12/05 13:09:36;;;;;;;15.00;5.53;;;3.30;99.90;;;;;;5036308;28;20781;-90
2022/12/05 13:12:09;;;;;;;10.60;7.03;;;3.30;99.90;;;;;;5036609;28;20458;-91
2022/12/05 13:14:37;;;;;;;13.30;5.77;;;3.30;99.90;;;;;;5036255;28;20448;-90